createdAt,value
2023-05-06T00:01:25.645Z,9.15
2023-05-06T00:03:52.494Z,10.51
2023-05-06T00:06:19.538Z,10.48
2023-05-06T00:08:46.800Z,9.97
2023-05-06T00:11:13.854Z,9.43
2023-05-06T00:13:41.472Z,9.87
2023-05-06T00:16:08.356Z,9.92
2023-05-06T00:18:35.818Z,9.64
2023-05-06T00:21:02.540Z,9.63
2023-05-06T00:23:29.502Z,9.78
2023-05-06T00:25:56.514Z,9.51
2023-05-06T00:28:23.305Z,9.37
2023-05-06T00:30:50.574Z,8.97
2023-05-06T00:33:17.310Z,7.97
2023-05-06T00:35:44.154Z,9.33
2023-05-06T00:38:15.595Z,10.31
2023-05-06T00:40:42.672Z,9.73
2023-05-06T00:43:10.069Z,9.05
2023-05-06T00:45:37.324Z,8.84
2023-05-06T00:48:08.104Z,9.20
2023-05-06T00:50:35.829Z,8.61
2023-05-06T00:53:05.894Z,9.02
2023-05-06T00:55:32.812Z,9.47
2023-05-06T00:57:59.710Z,9.34
2023-05-06T01:00:26.885Z,8.63
2023-05-06T01:02:53.935Z,8.75
2023-05-06T01:05:23.836Z,9.01
2023-05-06T01:07:51.176Z,9.54
2023-05-06T01:10:20.916Z,9.74
2023-05-06T01:12:59.809Z,8.96
2023-05-06T01:15:44.779Z,9.47
2023-05-06T01:18:16.037Z,9.15
2023-05-06T01:20:47.691Z,9.10
2023-05-06T01:23:14.886Z,8.97
2023-05-06T01:25:42.062Z,8.82
2023-05-06T01:28:13.260Z,8.81
2023-05-06T01:30:54.963Z,9.22
2023-05-06T01:34:09.456Z,9.23
2023-05-06T01:37:01.377Z,9.42
2023-05-06T01:39:31.161Z,9.38
2023-05-06T01:42:02.209Z,8.47
2023-05-06T01:44:33.590Z,8.55
2023-05-06T01:47:02.671Z,8.96
2023-05-06T01:49:30.332Z,8.79
2023-05-06T01:51:58.027Z,7.83
2023-05-06T01:54:25.211Z,7.40
2023-05-06T01:56:51.948Z,8.05
2023-05-06T01:59:18.667Z,8.80
2023-05-06T02:01:45.557Z,7.92
2023-05-06T02:04:12.449Z,9.43
2023-05-06T02:06:39.530Z,8.91
2023-05-06T02:09:06.751Z,7.32
2023-05-06T02:11:38.608Z,8.01
2023-05-06T02:14:07.053Z,8.15
2023-05-06T02:16:35.681Z,8.53
2023-05-06T02:19:02.877Z,9.17
2023-05-06T02:21:29.668Z,8.79
2023-05-06T02:23:56.370Z,9.94
2023-05-06T02:26:23.268Z,9.26
2023-05-06T02:28:50.497Z,8.55
2023-05-06T02:31:17.869Z,9.42
2023-05-06T02:33:45.944Z,8.26
2023-05-06T02:36:12.905Z,8.95
2023-05-06T02:38:39.572Z,6.32
2023-05-06T02:41:06.829Z,7.07
2023-05-06T02:43:33.550Z,6.80
2023-05-06T02:46:00.407Z,7.64
2023-05-06T02:48:27.412Z,8.52
2023-05-06T02:50:54.081Z,7.37
2023-05-06T02:53:21.260Z,7.95
2023-05-06T02:55:48.345Z,8.04
2023-05-06T02:58:15.143Z,7.72
2023-05-06T03:00:42.014Z,8.29
2023-05-06T03:03:10.010Z,7.31
2023-05-06T03:05:37.284Z,7.83
2023-05-06T03:08:04.229Z,8.24
2023-05-06T03:10:32.149Z,8.08
2023-05-06T03:13:00.142Z,8.29
2023-05-06T03:15:28.310Z,8.47
2023-05-06T03:17:55.316Z,7.17
2023-05-06T03:20:23.034Z,8.24
2023-05-06T03:22:54.119Z,7.64
2023-05-06T03:25:22.379Z,7.07
2023-05-06T03:27:49.481Z,6.61
2023-05-06T03:30:19.832Z,8.15
2023-05-06T03:32:48.908Z,6.27
2023-05-06T03:35:22.798Z,7.40
2023-05-06T03:37:53.631Z,7.99
2023-05-06T03:40:22.928Z,8.19
2023-05-06T03:42:51.181Z,6.35
2023-05-06T03:45:19.025Z,7.11
2023-05-06T03:47:46.794Z,8.03
2023-05-06T03:50:14.076Z,8.26
2023-05-06T03:52:41.973Z,7.56
2023-05-06T03:55:10.472Z,8.26
2023-05-06T03:57:38.977Z,7.20
2023-05-06T04:00:07.835Z,7.91
2023-05-06T04:02:43.081Z,8.68
2023-05-06T04:05:14.488Z,7.61
2023-05-06T04:07:41.678Z,6.29
2023-05-06T04:10:09.185Z,7.40
2023-05-06T04:12:36.783Z,8.79
2023-05-06T04:15:04.439Z,8.27
2023-05-06T04:17:31.519Z,6.77
2023-05-06T04:19:58.721Z,8.28
2023-05-06T04:22:25.822Z,7.59
2023-05-06T04:24:53.755Z,8.02
2023-05-06T04:27:20.770Z,8.16
2023-05-06T04:29:47.821Z,8.33
2023-05-06T04:32:18.101Z,7.27
2023-05-06T04:34:47.404Z,8.35
2023-05-06T04:37:15.918Z,7.55
2023-05-06T04:39:47.650Z,8.54
2023-05-06T04:42:16.205Z,8.38
2023-05-06T04:44:50.293Z,9.40
2023-05-06T04:47:20.489Z,9.73
2023-05-06T04:49:50.614Z,8.71
2023-05-06T04:52:18.038Z,9.15
2023-05-06T04:54:45.723Z,9.33
2023-05-06T04:57:12.918Z,9.56
2023-05-06T04:59:42.777Z,9.51
2023-05-06T05:02:09.872Z,9.23
2023-05-06T05:04:37.204Z,8.67
2023-05-06T05:07:04.589Z,9.27
2023-05-06T05:09:32.248Z,9.10
2023-05-06T05:12:01.396Z,8.34
2023-05-06T05:14:29.950Z,9.49
2023-05-06T05:16:57.447Z,8.70
2023-05-06T05:19:24.561Z,7.28
2023-05-06T05:21:52.622Z,9.24
2023-05-06T05:24:20.419Z,7.27
2023-05-06T05:26:47.236Z,8.59
2023-05-06T05:29:15.520Z,8.93
2023-05-06T05:31:43.105Z,7.17
2023-05-06T05:34:10.367Z,8.72
2023-05-06T05:36:37.440Z,9.38
2023-05-06T05:39:07.556Z,9.51
2023-05-06T05:41:38.888Z,9.89
2023-05-06T05:44:06.021Z,10.44
2023-05-06T05:46:32.878Z,11.53
2023-05-06T05:49:00.779Z,10.09
2023-05-06T05:51:28.041Z,9.57
2023-05-06T05:53:57.007Z,11.25
2023-05-06T05:56:25.243Z,9.85
2023-05-06T05:58:51.978Z,9.72
2023-05-06T06:01:19.776Z,10.80
2023-05-06T06:03:47.759Z,12.78
2023-05-06T06:06:14.870Z,12.27
2023-05-06T06:08:41.852Z,11.85
2023-05-06T06:11:09.310Z,11.75
2023-05-06T06:13:40.233Z,11.71
2023-05-06T06:16:08.079Z,11.98
2023-05-06T06:18:35.128Z,11.02
2023-05-06T06:21:02.552Z,11.23
2023-05-06T06:23:29.641Z,12.04
2023-05-06T06:25:56.603Z,11.64
2023-05-06T06:28:23.352Z,12.43
2023-05-06T06:30:50.363Z,13.59
2023-05-06T06:33:17.468Z,11.90
2023-05-06T06:35:44.259Z,12.43
2023-05-06T06:38:11.693Z,12.02
2023-05-06T06:40:38.403Z,13.21
2023-05-06T06:43:05.300Z,12.09
2023-05-06T06:45:58.219Z,11.24
2023-05-06T06:48:25.151Z,10.92
2023-05-06T06:50:52.138Z,11.03
2023-05-06T06:53:19.061Z,11.23
2023-05-06T06:55:46.258Z,11.89
2023-05-06T06:58:13.462Z,10.89
2023-05-06T07:00:40.523Z,11.65
2023-05-06T07:03:07.349Z,9.70
2023-05-06T07:05:34.399Z,11.25
2023-05-06T07:08:01.273Z,12.01
2023-05-06T07:10:28.385Z,10.68
2023-05-06T07:12:55.244Z,11.23
2023-05-06T07:15:22.189Z,12.67
2023-05-06T07:17:48.894Z,11.70
2023-05-06T07:20:16.368Z,12.28
2023-05-06T07:22:45.570Z,11.74
2023-05-06T07:25:12.770Z,10.60
2023-05-06T07:27:39.991Z,11.05
2023-05-06T07:30:08.070Z,12.77
2023-05-06T07:32:35.646Z,12.88
2023-05-06T07:35:02.843Z,10.94
2023-05-06T07:37:30.014Z,10.93
2023-05-06T07:39:57.395Z,10.89
2023-05-06T07:42:24.243Z,11.93
2023-05-06T07:44:51.046Z,12.23
2023-05-06T07:47:28.526Z,12.46
2023-05-06T07:49:56.136Z,11.80
2023-05-06T07:52:24.081Z,11.66
2023-05-06T07:54:51.324Z,11.13
2023-05-06T07:57:18.077Z,10.81
2023-05-06T07:59:48.101Z,12.12
2023-05-06T08:02:15.459Z,13.03
2023-05-06T08:04:43.088Z,11.66
2023-05-06T08:07:11.200Z,12.34
2023-05-06T08:09:38.028Z,13.55
2023-05-06T08:12:05.430Z,14.05
2023-05-06T08:14:32.414Z,11.82
2023-05-06T08:16:59.715Z,12.28
2023-05-06T08:19:26.801Z,12.66
2023-05-06T08:21:54.298Z,12.27
2023-05-06T08:24:21.549Z,11.40
2023-05-06T08:26:48.358Z,11.60
2023-05-06T08:29:15.079Z,10.06
2023-05-06T08:31:43.750Z,10.83
2023-05-06T08:34:10.791Z,11.55
2023-05-06T08:36:37.944Z,10.02
2023-05-06T08:39:04.750Z,11.56
2023-05-06T08:41:34.459Z,11.42
2023-05-06T08:44:03.575Z,12.45
2023-05-06T08:46:31.177Z,13.08
2023-05-06T08:49:01.527Z,12.98
2023-05-06T08:51:33.076Z,12.53
2023-05-06T08:54:04.104Z,12.69
2023-05-06T08:56:33.958Z,12.73
2023-05-06T08:59:01.486Z,13.21
2023-05-06T09:01:28.807Z,13.30
2023-05-06T09:03:58.354Z,13.19
2023-05-06T09:06:27.183Z,12.79
2023-05-06T09:08:54.804Z,13.42
2023-05-06T09:11:26.095Z,12.99
2023-05-06T09:14:12.923Z,13.14
2023-05-06T09:16:42.766Z,14.12
2023-05-06T09:19:09.831Z,13.99
2023-05-06T09:21:39.247Z,12.30
2023-05-06T09:24:13.802Z,11.94
2023-05-06T09:26:42.885Z,13.32
2023-05-06T09:29:09.982Z,13.45
2023-05-06T09:31:46.100Z,13.19
2023-05-06T09:34:14.793Z,13.78
2023-05-06T09:36:41.899Z,13.83
2023-05-06T09:39:10.201Z,15.13
2023-05-06T09:42:25.419Z,18.64
2023-05-06T09:44:55.067Z,14.50
2023-05-06T09:47:28.680Z,17.87
2023-05-06T09:50:01.463Z,18.73
2023-05-06T09:52:55.239Z,15.58
2023-05-06T09:55:27.253Z,14.39
2023-05-06T09:58:43.995Z,14.86
2023-05-06T10:01:17.057Z,14.72
2023-05-06T10:03:51.726Z,14.96
2023-05-06T10:06:20.052Z,14.88
2023-05-06T10:08:48.147Z,15.17
2023-05-06T10:11:15.906Z,15.26
2023-05-06T10:13:44.517Z,15.72
2023-05-06T10:16:14.572Z,16.31
2023-05-06T10:18:45.984Z,15.29
2023-05-06T10:21:21.975Z,17.35
2023-05-06T10:24:07.734Z,15.66
2023-05-06T10:26:38.881Z,13.39
2023-05-06T10:29:09.596Z,18.81
2023-05-06T10:31:44.319Z,16.86
2023-05-06T10:34:11.560Z,17.03
2023-05-06T10:36:39.458Z,15.69
2023-05-06T10:39:10.636Z,22.01
2023-05-06T10:41:38.504Z,22.27
2023-05-06T10:44:06.172Z,21.13
2023-05-06T10:46:59.897Z,23.52
2023-05-06T10:49:27.833Z,23.17
2023-05-06T10:52:15.398Z,20.60
2023-05-06T10:54:51.874Z,22.53
2023-05-06T10:57:20.883Z,17.26
2023-05-06T10:59:48.818Z,13.83
2023-05-06T11:02:20.885Z,18.85
2023-05-06T11:04:53.047Z,15.26
2023-05-06T11:07:24.120Z,15.16
2023-05-06T11:10:02.124Z,16.79
2023-05-06T11:12:52.855Z,19.11
2023-05-06T11:15:24.509Z,16.09
2023-05-06T11:17:52.436Z,18.67
2023-05-06T11:20:23.474Z,19.66
2023-05-06T11:22:50.466Z,23.25
2023-05-06T11:25:53.676Z,21.33
2023-05-06T11:28:20.638Z,17.60
2023-05-06T11:30:56.266Z,17.15
2023-05-06T11:33:27.798Z,16.13
2023-05-06T11:35:54.522Z,16.48
2023-05-06T11:38:21.318Z,16.57
2023-05-06T11:40:49.400Z,14.71
2023-05-06T11:43:17.505Z,13.42
2023-05-06T11:45:48.552Z,15.57
2023-05-06T11:48:17.237Z,15.78
2023-05-06T11:50:46.105Z,19.05
2023-05-06T11:53:23.384Z,19.62
2023-05-06T11:55:53.228Z,15.73
2023-05-06T11:58:25.229Z,15.53
2023-05-06T12:00:57.530Z,14.13
2023-05-06T12:03:25.904Z,14.53
2023-05-06T12:05:53.648Z,14.75
2023-05-06T12:08:27.910Z,14.63
2023-05-06T12:10:59.337Z,14.24
2023-05-06T12:13:27.549Z,18.15
2023-05-06T12:15:55.579Z,16.49
2023-05-06T12:18:23.836Z,16.68
2023-05-06T12:20:53.480Z,17.10
2023-05-06T12:23:21.908Z,14.75
2023-05-06T12:26:02.399Z,16.37
2023-05-06T12:28:30.354Z,15.15
2023-05-06T12:30:57.126Z,15.93
2023-05-06T12:33:24.015Z,14.26
2023-05-06T12:35:57.065Z,14.42
2023-05-06T12:38:24.058Z,14.74
2023-05-06T12:40:55.164Z,15.07
2023-05-06T12:43:32.627Z,13.74
2023-05-06T12:46:04.937Z,15.87
2023-05-06T12:48:31.991Z,16.32
2023-05-06T12:50:58.942Z,18.87
2023-05-06T12:53:34.086Z,18.71
2023-05-06T12:56:01.052Z,18.23
2023-05-06T12:58:28.253Z,19.36
2023-05-06T13:00:55.013Z,18.61
2023-05-06T13:03:21.854Z,19.34
2023-05-06T13:05:50.329Z,21.02
2023-05-06T13:08:17.242Z,21.52
2023-05-06T13:10:44.021Z,19.99
2023-05-06T13:13:10.724Z,19.86
2023-05-06T13:15:37.800Z,17.67
2023-05-06T13:18:05.206Z,16.92
2023-05-06T13:20:32.704Z,17.35
2023-05-06T13:22:59.594Z,17.12
2023-05-06T13:25:26.355Z,17.65
2023-05-06T13:27:53.322Z,18.36
2023-05-06T13:30:20.185Z,18.08
2023-05-06T13:32:47.434Z,17.51
2023-05-06T13:35:14.415Z,18.21
2023-05-06T13:37:41.154Z,17.42
2023-05-06T13:40:08.800Z,17.45
2023-05-06T13:42:36.515Z,17.36
2023-05-06T13:45:03.293Z,17.32
2023-05-06T13:47:30.030Z,20.93
2023-05-06T13:49:56.751Z,20.80
2023-05-06T13:52:24.048Z,19.60
2023-05-06T13:54:50.752Z,20.46
2023-05-06T13:57:19.100Z,19.55
2023-05-06T13:59:46.073Z,20.72
2023-05-06T14:02:14.016Z,19.79
2023-05-06T14:04:41.105Z,20.91
2023-05-06T14:07:07.860Z,20.16
2023-05-06T14:09:34.623Z,16.78
2023-05-06T14:12:01.470Z,18.34
2023-05-06T14:14:28.806Z,18.30
2023-05-06T14:16:55.776Z,17.94
2023-05-06T14:19:22.506Z,18.34
2023-05-06T14:21:50.956Z,17.60
2023-05-06T14:24:17.690Z,17.91
2023-05-06T14:26:46.339Z,19.31
2023-05-06T14:29:13.154Z,18.94
2023-05-06T14:31:40.275Z,17.76
2023-05-06T14:34:07.312Z,16.83
2023-05-06T14:36:34.269Z,17.75
2023-05-06T14:39:01.305Z,17.29
2023-05-06T14:41:28.217Z,17.46
2023-05-06T14:43:55.266Z,18.21
2023-05-06T14:46:22.106Z,17.55
2023-05-06T14:48:48.823Z,16.92
2023-05-06T14:51:15.565Z,18.04
2023-05-06T14:53:42.427Z,17.57
2023-05-06T14:56:10.622Z,17.97
2023-05-06T14:58:37.489Z,17.80
2023-05-06T15:01:04.238Z,16.97
2023-05-06T15:03:31.110Z,16.73
2023-05-06T15:05:58.331Z,17.73
2023-05-06T15:08:26.391Z,16.18
2023-05-06T15:10:53.327Z,16.40
2023-05-06T15:13:20.314Z,16.63
2023-05-06T15:15:47.134Z,15.83
2023-05-06T15:18:14.307Z,17.26
2023-05-06T15:20:41.039Z,16.54
2023-05-06T15:23:07.767Z,16.68
2023-05-06T15:25:36.101Z,17.73
2023-05-06T15:28:05.122Z,16.70
2023-05-06T15:30:32.068Z,17.12
2023-05-06T15:32:58.988Z,18.20
2023-05-06T15:35:25.910Z,16.27
2023-05-06T15:37:59.735Z,17.86
2023-05-06T15:40:27.075Z,17.56
2023-05-06T15:42:54.177Z,16.93
2023-05-06T15:45:21.987Z,17.61
2023-05-06T15:47:49.054Z,17.83
2023-05-06T15:50:25.255Z,17.86
2023-05-06T15:52:58.749Z,18.07
2023-05-06T15:55:26.568Z,18.69
2023-05-06T15:57:54.842Z,16.77
2023-05-06T16:00:22.345Z,16.49
2023-05-06T16:02:49.413Z,16.47
2023-05-06T16:05:16.563Z,15.89
2023-05-06T16:07:43.964Z,16.60
2023-05-06T16:10:11.492Z,16.58
2023-05-06T16:12:38.518Z,16.18
2023-05-06T16:15:05.984Z,15.01
2023-05-06T16:17:37.484Z,16.15
2023-05-06T16:20:05.562Z,16.19
2023-05-06T16:22:32.604Z,16.88
2023-05-06T16:24:59.312Z,15.58
2023-05-06T16:27:28.288Z,16.33
2023-05-06T16:29:55.862Z,16.00
2023-05-06T16:32:23.474Z,16.90
2023-05-06T16:34:50.796Z,17.74
2023-05-06T16:37:17.668Z,17.56
2023-05-06T16:39:44.322Z,18.38
2023-05-06T16:42:11.344Z,18.05
2023-05-06T16:44:38.037Z,18.64
2023-05-06T16:47:04.797Z,18.60
2023-05-06T16:49:33.846Z,17.70
2023-05-06T16:52:00.812Z,17.51
2023-05-06T16:54:27.570Z,17.60
2023-05-06T16:56:54.835Z,17.53
2023-05-06T16:59:22.598Z,15.92
2023-05-06T17:01:50.400Z,17.15
2023-05-06T17:04:17.275Z,17.86
2023-05-06T17:06:44.589Z,16.53
2023-05-06T17:09:12.185Z,16.79
2023-05-06T17:11:38.924Z,16.07
2023-05-06T17:14:05.951Z,16.33
2023-05-06T17:16:33.047Z,15.47
2023-05-06T17:18:59.898Z,14.58
2023-05-06T17:21:27.882Z,15.30
2023-05-06T17:23:54.633Z,15.22
2023-05-06T17:26:22.146Z,14.87
2023-05-06T17:28:51.082Z,14.69
2023-05-06T17:31:18.441Z,14.73
2023-05-06T17:33:45.998Z,15.39
2023-05-06T17:36:13.854Z,14.89
2023-05-06T17:38:40.742Z,14.25
2023-05-06T17:41:07.543Z,14.59
2023-05-06T17:43:34.606Z,14.59
2023-05-06T17:46:01.758Z,14.66
2023-05-06T17:48:28.638Z,15.70
2023-05-06T17:51:00.961Z,15.60
2023-05-06T17:53:28.304Z,14.96
2023-05-06T17:55:55.129Z,13.76
2023-05-06T17:58:21.966Z,14.85
2023-05-06T18:00:48.733Z,14.99
2023-05-06T18:03:16.143Z,16.11
2023-05-06T18:05:42.900Z,16.30
2023-05-06T18:08:09.880Z,14.34
2023-05-06T18:10:36.749Z,13.57
2023-05-06T18:13:03.959Z,14.19
2023-05-06T18:15:31.396Z,14.42
2023-05-06T18:17:58.199Z,15.52
2023-05-06T18:20:25.109Z,16.20
2023-05-06T18:22:52.246Z,16.16
2023-05-06T18:25:19.151Z,14.84
2023-05-06T18:27:47.395Z,14.24
2023-05-06T18:30:16.223Z,15.13
2023-05-06T18:32:42.999Z,14.82
2023-05-06T18:35:13.713Z,15.14
2023-05-06T18:37:41.600Z,14.44
2023-05-06T18:40:09.262Z,15.20
2023-05-06T18:42:36.140Z,15.19
2023-05-06T18:45:05.219Z,14.27
2023-05-06T18:47:32.537Z,12.95
2023-05-06T18:50:00.759Z,11.91
2023-05-06T18:52:28.582Z,13.49
2023-05-06T18:54:55.583Z,13.28
2023-05-06T18:57:23.572Z,13.46
2023-05-06T18:59:50.371Z,13.84
2023-05-06T19:02:17.433Z,14.07
2023-05-06T19:04:44.220Z,13.29
2023-05-06T19:07:12.798Z,11.88
2023-05-06T19:09:42.572Z,11.23
2023-05-06T19:12:09.324Z,11.74
2023-05-06T19:14:36.207Z,11.05
2023-05-06T19:17:04.672Z,12.95
2023-05-06T19:19:31.997Z,12.45
2023-05-06T19:21:59.781Z,12.58
2023-05-06T19:24:26.851Z,12.36
2023-05-06T19:26:53.730Z,12.11
2023-05-06T19:29:20.808Z,11.63
2023-05-06T19:31:47.748Z,11.71
2023-05-06T19:34:14.523Z,12.28
2023-05-06T19:36:41.471Z,13.29
2023-05-06T19:39:08.419Z,12.62
2023-05-06T19:41:35.605Z,12.10
2023-05-06T19:44:02.652Z,12.07
2023-05-06T19:46:29.401Z,12.32
2023-05-06T19:48:58.146Z,12.63
2023-05-06T19:51:25.008Z,11.55
2023-05-06T19:53:51.808Z,12.08
2023-05-06T19:56:19.729Z,12.27
2023-05-06T19:58:46.725Z,12.27
2023-05-06T20:01:13.835Z,12.41
2023-05-06T20:03:40.858Z,12.28
2023-05-06T20:06:08.166Z,10.30
2023-05-06T20:08:35.561Z,11.35
2023-05-06T20:11:03.227Z,12.15
2023-05-06T20:13:30.033Z,12.17
2023-05-06T20:15:57.699Z,11.47
2023-05-06T20:18:25.629Z,11.54
2023-05-06T20:20:52.433Z,10.54
2023-05-06T20:23:19.120Z,11.22
2023-05-06T20:25:45.858Z,10.39
2023-05-06T20:28:13.336Z,10.69
2023-05-06T20:30:40.397Z,12.10
2023-05-06T20:33:08.026Z,11.95
2023-05-06T20:35:38.524Z,11.04
2023-05-06T20:38:06.571Z,11.29
2023-05-06T20:40:35.872Z,12.02
2023-05-06T20:43:04.041Z,11.36
2023-05-06T20:45:31.802Z,11.70
2023-05-06T20:47:59.110Z,11.72
2023-05-06T20:50:26.082Z,10.21
2023-05-06T20:52:54.479Z,9.73
2023-05-06T20:55:23.487Z,11.27
2023-05-06T20:57:50.480Z,12.07
2023-05-06T21:00:18.905Z,12.56
2023-05-06T21:02:45.661Z,11.86
2023-05-06T21:05:12.765Z,10.78
2023-05-06T21:07:39.928Z,11.18
2023-05-06T21:10:07.545Z,11.89
2023-05-06T21:12:34.523Z,11.50
2023-05-06T21:15:01.425Z,11.25
2023-05-06T21:17:29.247Z,11.58
2023-05-06T21:19:56.321Z,11.54
2023-05-06T21:22:23.964Z,10.23
2023-05-06T21:24:51.429Z,10.64
2023-05-06T21:27:18.655Z,10.13
2023-05-06T21:29:45.468Z,10.56
2023-05-06T21:32:12.452Z,10.69
2023-05-06T21:34:39.382Z,9.32
2023-05-06T21:37:06.126Z,9.75
2023-05-06T21:39:33.254Z,10.67
2023-05-06T21:42:00.038Z,11.16
2023-05-06T21:44:26.754Z,11.06
2023-05-06T21:46:53.857Z,10.40
2023-05-06T21:49:22.302Z,11.31
2023-05-06T21:51:49.556Z,10.37
2023-05-06T21:54:17.383Z,9.67
2023-05-06T21:56:44.589Z,9.06
2023-05-06T21:59:11.495Z,9.74
2023-05-06T22:01:39.048Z,10.43
2023-05-06T22:04:11.438Z,9.37
2023-05-06T22:06:39.510Z,9.48
2023-05-06T22:09:09.476Z,9.70
2023-05-06T22:11:38.329Z,9.30
2023-05-06T22:14:06.696Z,9.89
2023-05-06T22:16:35.558Z,10.09
2023-05-06T22:19:03.910Z,8.73
2023-05-06T22:21:31.983Z,9.90
2023-05-06T22:23:59.611Z,9.48
2023-05-06T22:26:28.139Z,9.55
2023-05-06T22:28:58.156Z,7.86
2023-05-06T22:31:26.030Z,8.50
2023-05-06T22:33:57.542Z,8.64
2023-05-06T22:36:29.159Z,8.42
2023-05-06T22:38:56.239Z,9.01
2023-05-06T22:41:23.276Z,9.82
2023-05-06T22:43:50.103Z,9.59
2023-05-06T22:46:17.055Z,10.45
2023-05-06T22:48:47.095Z,9.69
2023-05-06T22:51:16.897Z,9.95
2023-05-06T22:53:43.963Z,9.72
2023-05-06T22:56:11.231Z,9.71
2023-05-06T22:58:38.203Z,8.32
2023-05-06T23:01:05.148Z,9.98
2023-05-06T23:03:31.872Z,9.53
2023-05-06T23:05:58.684Z,10.02
2023-05-06T23:08:25.537Z,9.96
2023-05-06T23:10:52.543Z,10.57
2023-05-06T23:13:19.599Z,10.21
2023-05-06T23:15:46.358Z,9.77
2023-05-06T23:18:13.072Z,9.50
2023-05-06T23:20:39.813Z,10.30
2023-05-06T23:23:10.533Z,10.42
2023-05-06T23:25:37.656Z,10.10
2023-05-06T23:28:04.817Z,9.55
2023-05-06T23:30:31.605Z,10.21
2023-05-06T23:32:58.446Z,9.75
2023-05-06T23:35:26.042Z,10.40
2023-05-06T23:37:52.990Z,9.13
2023-05-06T23:40:19.925Z,9.74
2023-05-06T23:42:46.649Z,8.69
2023-05-06T23:45:13.465Z,9.00
2023-05-06T23:47:40.484Z,9.11
2023-05-06T23:50:07.907Z,9.61
2023-05-06T23:52:37.315Z,9.53
2023-05-06T23:55:05.490Z,9.37
2023-05-06T23:57:32.356Z,9.51
2023-05-06T23:59:59.363Z,9.86
